Terminal Aerodrome Forecast
Issued by NWS Albuquerque, NM

Home | Current Version | Previous Version | Text Only | Print | Product List | Glossary On
Versions: 1 2 3 4 5 6 7 8 9 10 11 12 13 14
596
FTUS45 KABQ 191134
TAFABQ
TAF
KABQ 191134Z 1912/2012 35005KT P6SM FEW250
     FM192000 19006KT P6SM SKC
     FM200200 14005KT P6SM SKC=

USA.gov is the U.S. government's official web portal to all federal, state and local government web resources and services.